KVSF/VSF METAR and TAF weather

Enter ICAO airport designator
Station Type Date Time Source
KVSF METAR 2019/08/24 16:54 UTC NOAA

KVSF 241654Z AUTO VRB04KT 10SM CLR 22/11 A3020 RMK AO2 SLP228 T02170106


Station Type Date Time Source
KVSF Decoded METAR 2019/08/24 16:54 UTC NOAA

Station name not available
Aug 24, 2019 - 12:54 PM EDT / 2019.08.24 1654 UTC
Wind: Variable at 5 MPH (4 KT):0
Visibility: 10 mile(s):0
Sky conditions: clear
Temperature: 71.1 F (21.7 C)
Dew Point: 51.1 F (10.6 C)
Relative Humidity: 49%
Pressure (altimeter): 30.2 in. Hg (1022 hPa)
ob: KVSF 241654Z AUTO VRB04KT 10SM CLR 22/11 A3020 RMK AO2 SLP228 T02170106
cycle: 17

Station Type Date Time Source
KVSF TAF UTC NOAA

Error!

Example: see airport list